createdAt,value
2019-02-09T00:00:45.965Z,0.55
2019-02-09T00:02:52.934Z,0.57
2019-02-09T00:04:59.914Z,0.58
2019-02-09T00:07:12.018Z,0.61
2019-02-09T00:09:18.856Z,0.62
2019-02-09T00:11:25.601Z,0.64
2019-02-09T00:13:32.635Z,0.63
2019-02-09T00:15:39.895Z,0.63
2019-02-09T00:17:47.306Z,0.65
2019-02-09T00:19:53.836Z,0.65
2019-02-09T00:22:02.026Z,0.65
2019-02-09T00:24:08.835Z,0.68
2019-02-09T00:26:16.871Z,0.72
2019-02-09T00:28:23.455Z,0.76
2019-02-09T00:30:30.077Z,0.80
2019-02-09T00:32:38.300Z,0.84
2019-02-09T00:34:44.927Z,0.86
2019-02-09T00:36:51.656Z,0.90
2019-02-09T00:38:58.377Z,0.91
2019-02-09T00:41:05.366Z,0.93
2019-02-09T00:43:12.106Z,0.95
2019-02-09T00:45:30.296Z,0.97
2019-02-09T00:47:38.467Z,1.00
2019-02-09T00:49:45.526Z,1.02
2019-02-09T00:51:52.192Z,1.03
2019-02-09T00:54:00.158Z,1.06
2019-02-09T00:56:08.758Z,1.09
2019-02-09T00:58:16.238Z,1.11
2019-02-09T01:00:34.699Z,1.11
2019-02-09T01:02:41.866Z,1.11
2019-02-09T01:04:49.140Z,1.12
2019-02-09T01:06:58.630Z,1.10
2019-02-09T01:09:08.547Z,1.07
2019-02-09T01:11:15.260Z,1.03
2019-02-09T01:13:23.331Z,0.99
2019-02-09T01:15:31.355Z,0.95
2019-02-09T01:17:37.865Z,0.94
2019-02-09T01:19:44.319Z,0.89
2019-02-09T01:21:52.238Z,0.86
2019-02-09T01:23:58.885Z,0.85
2019-02-09T01:26:05.987Z,0.81
2019-02-09T01:28:12.990Z,0.79
2019-02-09T01:30:22.840Z,0.77
2019-02-09T01:32:29.802Z,0.74
2019-02-09T01:34:36.501Z,0.74
2019-02-09T01:36:47.247Z,0.71
2019-02-09T01:38:54.098Z,0.67
2019-02-09T01:41:01.104Z,0.67
2019-02-09T01:43:07.960Z,0.65
2019-02-09T01:45:21.642Z,0.61
2019-02-09T01:47:28.305Z,0.58
2019-02-09T01:49:35.339Z,0.55
2019-02-09T01:51:42.186Z,0.53
2019-02-09T01:53:49.397Z,0.53
2019-02-09T01:55:57.538Z,0.51
2019-02-09T01:58:04.066Z,0.49
2019-02-09T02:00:23.544Z,0.49
2019-02-09T02:02:32.278Z,0.48
2019-02-09T02:04:39.385Z,0.47
2019-02-09T02:06:46.286Z,0.49
2019-02-09T02:08:53.189Z,0.49
2019-02-09T02:10:59.763Z,0.51
2019-02-09T02:13:09.535Z,0.52
2019-02-09T02:15:19.955Z,0.53
2019-02-09T02:17:26.835Z,0.53
2019-02-09T02:19:33.575Z,0.54
2019-02-09T02:21:41.652Z,0.55
2019-02-09T02:23:48.581Z,0.55
2019-02-09T02:25:55.306Z,0.56
2019-02-09T02:28:03.256Z,0.56
2019-02-09T02:30:23.252Z,0.58
2019-02-09T02:32:30.190Z,0.57
2019-02-09T02:34:36.861Z,0.62
2019-02-09T02:36:45.501Z,0.63
2019-02-09T02:38:52.129Z,0.63
2019-02-09T02:41:00.520Z,0.65
2019-02-09T02:43:07.671Z,0.66
2019-02-09T02:45:17.840Z,0.66
2019-02-09T02:47:24.646Z,0.69
2019-02-09T02:49:31.418Z,0.70
2019-02-09T02:51:38.081Z,0.71
2019-02-09T02:53:47.558Z,0.73
2019-02-09T02:55:54.411Z,0.76
2019-02-09T02:58:01.702Z,0.77
2019-02-09T03:00:13.938Z,0.78
2019-02-09T03:02:20.578Z,0.81
2019-02-09T03:04:27.508Z,0.82
2019-02-09T03:06:35.526Z,0.83
2019-02-09T03:10:56.967Z,0.88
2019-02-09T03:13:04.933Z,0.91
2019-02-09T03:15:15.715Z,0.95
2019-02-09T03:17:24.383Z,0.97
2019-02-09T03:19:31.132Z,1.00
2019-02-09T03:21:37.908Z,1.02
2019-02-09T03:23:44.792Z,1.04
2019-02-09T03:25:51.416Z,1.08
2019-02-09T03:27:58.475Z,1.07
2019-02-09T03:30:11.133Z,1.10
2019-02-09T03:32:19.344Z,1.10
2019-02-09T03:34:26.021Z,1.12
2019-02-09T03:36:34.232Z,1.15
2019-02-09T03:38:42.555Z,1.17
2019-02-09T03:40:49.347Z,1.21
2019-02-09T03:42:56.050Z,1.24
2019-02-09T03:45:05.515Z,1.27
2019-02-09T03:47:12.344Z,1.28
2019-02-09T03:49:19.047Z,1.30
2019-02-09T03:51:26.285Z,1.30
2019-02-09T03:53:33.034Z,1.33
2019-02-09T03:55:39.822Z,1.35
2019-02-09T03:57:46.547Z,1.37
2019-02-09T03:59:56.342Z,1.42
2019-02-09T04:02:04.969Z,1.40
2019-02-09T04:04:12.048Z,1.42
2019-02-09T04:06:18.921Z,1.43
2019-02-09T04:08:25.392Z,1.46
2019-02-09T04:10:33.474Z,1.47
2019-02-09T04:12:40.473Z,1.46
2019-02-09T04:14:47.319Z,1.46
2019-02-09T04:16:54.398Z,1.47
2019-02-09T04:19:02.018Z,1.47
2019-02-09T04:21:09.695Z,1.48
2019-02-09T04:23:16.827Z,1.48
2019-02-09T04:25:24.910Z,1.47
2019-02-09T04:27:31.770Z,1.45
2019-02-09T04:29:38.730Z,1.44
2019-02-09T04:31:48.253Z,1.45
2019-02-09T04:33:55.335Z,1.44
2019-02-09T04:36:03.155Z,1.43
2019-02-09T04:38:10.209Z,1.42
2019-02-09T04:40:32.424Z,1.41
2019-02-09T04:42:42.403Z,1.39
2019-02-09T04:44:49.790Z,1.38
2019-02-09T04:46:56.610Z,1.36
2019-02-09T04:49:04.288Z,1.38
2019-02-09T04:51:11.439Z,1.39
2019-02-09T04:53:20.361Z,1.38
2019-02-09T04:55:28.476Z,1.36
2019-02-09T04:57:35.291Z,1.39
2019-02-09T04:59:43.492Z,1.40
2019-02-09T05:01:50.151Z,1.44
2019-02-09T05:03:56.998Z,1.48
2019-02-09T05:06:04.215Z,1.50
2019-02-09T05:08:10.997Z,1.52
2019-02-09T05:10:20.577Z,1.52
2019-02-09T05:12:27.230Z,1.58
2019-02-09T05:14:36.157Z,1.61
2019-02-09T05:16:42.890Z,1.61
2019-02-09T05:18:51.048Z,1.61
2019-02-09T05:20:58.051Z,1.61
2019-02-09T05:23:04.959Z,1.61
2019-02-09T05:25:14.200Z,1.62
2019-02-09T05:27:20.913Z,1.64
2019-02-09T05:29:27.380Z,1.64
2019-02-09T05:31:33.783Z,1.65
2019-02-09T05:33:42.101Z,1.68
2019-02-09T05:35:48.929Z,1.68
2019-02-09T05:37:57.967Z,1.70
2019-02-09T05:40:11.525Z,1.74
2019-02-09T05:42:18.491Z,1.74
2019-02-09T05:44:25.496Z,1.79
2019-02-09T05:46:33.083Z,1.82
2019-02-09T05:48:39.891Z,1.98
2019-02-09T05:50:49.203Z,2.12
2019-02-09T05:52:57.578Z,2.26
2019-02-09T05:55:04.518Z,2.39
2019-02-09T05:57:11.312Z,2.44
2019-02-09T05:59:18.122Z,2.47
2019-02-09T06:01:31.863Z,2.38
2019-02-09T06:03:34.462Z,2.29
2019-02-09T06:05:43.638Z,2.22
2019-02-09T06:07:50.393Z,2.53
2019-02-09T06:10:00.054Z,2.54
2019-02-09T06:12:08.082Z,2.38
2019-02-09T06:14:14.672Z,2.39
2019-02-09T06:16:21.471Z,2.45
2019-02-09T06:18:29.618Z,2.53
2019-02-09T06:20:37.703Z,2.48
2019-02-09T06:22:44.342Z,2.42
2019-02-09T06:24:52.561Z,2.24
2019-02-09T06:26:59.448Z,2.21
2019-02-09T06:29:10.929Z,2.14
2019-02-09T06:31:17.511Z,2.10
2019-02-09T06:33:24.498Z,2.02
2019-02-09T06:35:34.572Z,1.98
2019-02-09T06:37:44.442Z,1.95
2019-02-09T06:39:54.392Z,1.90
2019-02-09T06:42:03.271Z,1.89
2019-02-09T06:44:10.091Z,1.85
2019-02-09T06:46:28.602Z,1.82
2019-02-09T06:48:36.542Z,1.79
2019-02-09T06:50:44.533Z,1.76
2019-02-09T06:52:51.248Z,1.74
2019-02-09T06:54:59.131Z,1.72
2019-02-09T06:57:05.673Z,1.69
2019-02-09T06:59:12.751Z,1.67
2019-02-09T07:01:19.743Z,1.67
2019-02-09T07:03:26.542Z,1.73
2019-02-09T07:05:34.302Z,1.75
2019-02-09T07:07:40.682Z,1.82
2019-02-09T07:09:53.789Z,1.83
2019-02-09T07:12:04.142Z,1.83
2019-02-09T07:14:12.662Z,1.89
2019-02-09T07:16:19.491Z,1.94
2019-02-09T07:18:26.371Z,1.95
2019-02-09T07:20:32.953Z,2.16
2019-02-09T07:22:39.763Z,2.15
2019-02-09T07:24:46.832Z,2.47
2019-02-09T07:26:54.431Z,2.54
2019-02-09T07:29:01.242Z,2.55
2019-02-09T07:31:07.992Z,2.70
2019-02-09T07:33:15.025Z,3.02
2019-02-09T07:35:21.832Z,3.05
2019-02-09T07:37:28.652Z,3.03
2019-02-09T07:39:35.037Z,2.99
2019-02-09T07:41:41.802Z,3.13
2019-02-09T07:43:48.449Z,3.33
2019-02-09T07:45:55.167Z,3.17
2019-02-09T07:48:02.231Z,3.15
2019-02-09T07:50:16.073Z,3.01
2019-02-09T07:52:23.022Z,2.90
2019-02-09T07:54:29.832Z,2.79
2019-02-09T07:56:37.869Z,2.81
2019-02-09T07:58:44.704Z,2.90
2019-02-09T08:00:55.913Z,2.88
2019-02-09T08:03:03.554Z,2.93
2019-02-09T08:05:15.292Z,3.00
2019-02-09T08:07:22.353Z,2.97
2019-02-09T08:09:29.421Z,3.06
2019-02-09T08:11:36.481Z,3.06
2019-02-09T08:13:43.474Z,3.14
2019-02-09T08:15:50.090Z,3.27
2019-02-09T08:17:57.058Z,3.27
2019-02-09T08:20:15.990Z,3.35
2019-02-09T08:22:23.458Z,3.45
2019-02-09T08:24:30.760Z,3.46
2019-02-09T08:26:37.864Z,3.53
2019-02-09T08:28:47.590Z,3.44
2019-02-09T08:30:56.004Z,3.43
2019-02-09T08:33:02.760Z,3.44
2019-02-09T08:35:10.020Z,3.59
2019-02-09T08:37:17.220Z,3.71
2019-02-09T08:39:25.115Z,3.77
2019-02-09T08:41:31.839Z,3.87
2019-02-09T08:43:38.550Z,3.73
2019-02-09T08:45:45.609Z,3.59
2019-02-09T08:47:53.051Z,3.61
2019-02-09T08:49:59.847Z,3.62
2019-02-09T08:52:08.222Z,3.60
2019-02-09T08:54:15.177Z,3.72
2019-02-09T08:56:21.931Z,3.70
2019-02-09T08:58:30.136Z,3.77
2019-02-09T09:00:40.617Z,3.82
2019-02-09T09:02:47.498Z,3.76
2019-02-09T09:04:54.247Z,3.66
2019-02-09T09:07:00.700Z,3.76
2019-02-09T09:09:10.427Z,3.85
2019-02-09T09:11:17.048Z,3.88
2019-02-09T09:13:23.638Z,3.92
2019-02-09T09:15:50.835Z,4.07
2019-02-09T09:17:58.140Z,4.02
2019-02-09T09:20:19.702Z,3.91
2019-02-09T09:22:26.300Z,4.01
2019-02-09T09:24:37.620Z,4.08
2019-02-09T09:26:45.710Z,4.03
2019-02-09T09:28:52.698Z,4.14
2019-02-09T09:30:59.440Z,4.24
2019-02-09T09:33:06.543Z,4.15
2019-02-09T09:35:14.515Z,4.29
2019-02-09T09:37:22.760Z,4.32
2019-02-09T09:39:29.654Z,4.34
2019-02-09T09:41:36.094Z,4.38
2019-02-09T09:43:43.040Z,4.50
2019-02-09T09:45:50.625Z,4.45
2019-02-09T09:47:57.357Z,4.54
2019-02-09T09:50:05.671Z,4.54
2019-02-09T09:52:12.380Z,4.62
2019-02-09T09:54:18.850Z,4.83
2019-02-09T09:56:25.850Z,4.78
2019-02-09T09:58:34.260Z,4.82
2019-02-09T10:00:44.057Z,5.01
2019-02-09T10:02:53.419Z,4.87
2019-02-09T10:05:00.179Z,4.85
2019-02-09T10:07:06.978Z,4.92
2019-02-09T10:09:16.738Z,4.90
2019-02-09T10:11:24.040Z,4.65
2019-02-09T10:13:31.003Z,4.72
2019-02-09T10:15:38.797Z,4.75
2019-02-09T10:17:45.740Z,4.88
2019-02-09T10:19:52.740Z,4.87
2019-02-09T10:21:59.527Z,4.96
2019-02-09T10:24:06.470Z,4.90
2019-02-09T10:26:13.467Z,4.86
2019-02-09T10:28:21.899Z,5.04
2019-02-09T10:30:31.684Z,5.15
2019-02-09T10:32:44.529Z,5.23
2019-02-09T10:34:50.948Z,5.43
2019-02-09T10:36:57.615Z,5.64
2019-02-09T10:39:08.222Z,5.59
2019-02-09T10:41:16.945Z,5.61
2019-02-09T10:43:24.574Z,5.51
2019-02-09T10:45:32.756Z,5.46
2019-02-09T10:47:39.836Z,5.27
2019-02-09T10:49:46.694Z,5.21
2019-02-09T10:51:53.774Z,5.09
2019-02-09T10:54:01.855Z,4.97
2019-02-09T10:56:08.780Z,4.89
2019-02-09T10:58:15.618Z,4.78
2019-02-09T11:00:43.314Z,4.81
2019-02-09T11:02:52.215Z,4.75
2019-02-09T11:04:58.777Z,4.72
2019-02-09T11:07:06.037Z,4.73
2019-02-09T11:09:17.158Z,4.64
2019-02-09T11:11:23.912Z,4.58
2019-02-09T11:13:31.115Z,4.63
2019-02-09T11:15:39.240Z,4.63
2019-02-09T11:17:46.235Z,4.67
2019-02-09T11:19:54.034Z,4.70
2019-02-09T11:22:02.234Z,4.81
2019-02-09T11:24:09.354Z,4.96
2019-02-09T11:26:16.062Z,5.04
2019-02-09T11:28:24.137Z,5.10
2019-02-09T11:30:32.617Z,5.08
2019-02-09T11:32:39.813Z,5.13
2019-02-09T11:34:46.598Z,5.25
2019-02-09T11:36:53.455Z,5.29
2019-02-09T11:39:00.500Z,5.37
2019-02-09T11:41:08.415Z,5.39
2019-02-09T11:43:16.813Z,5.50
2019-02-09T11:45:30.377Z,5.62
2019-02-09T11:47:38.514Z,5.69
2019-02-09T11:49:46.876Z,5.64
2019-02-09T11:51:53.293Z,5.69
2019-02-09T11:54:00.396Z,5.72
2019-02-09T11:56:07.455Z,5.65
2019-02-09T11:58:16.233Z,5.54
2019-02-09T12:00:29.235Z,5.53
2019-02-09T12:02:36.123Z,5.49
2019-02-09T12:04:43.338Z,5.44
2019-02-09T12:06:52.913Z,5.37
2019-02-09T12:09:00.234Z,5.32
2019-02-09T12:11:07.114Z,5.36
2019-02-09T12:13:13.814Z,5.41
2019-02-09T12:15:36.834Z,5.27
2019-02-09T12:17:44.474Z,5.33
2019-02-09T12:19:51.314Z,5.28
2019-02-09T12:24:52.014Z,5.23
2019-02-09T12:27:00.433Z,5.24
2019-02-09T12:29:08.795Z,5.15
2019-02-09T12:31:15.954Z,5.20
2019-02-09T12:33:23.588Z,5.15
2019-02-09T12:35:30.689Z,5.25
2019-02-09T12:37:37.959Z,5.46
2019-02-09T12:39:45.093Z,5.70
2019-02-09T12:41:51.703Z,5.85
2019-02-09T12:43:58.557Z,5.98
2019-02-09T12:46:09.738Z,6.01
2019-02-09T12:48:16.621Z,6.09
2019-02-09T12:50:27.414Z,6.18
2019-02-09T12:52:34.194Z,6.24
2019-02-09T12:54:51.914Z,6.21
2019-02-09T12:57:00.665Z,6.23
2019-02-09T12:59:14.622Z,6.15
2019-02-09T13:01:16.859Z,6.12
2019-02-09T13:03:31.260Z,6.10
2019-02-09T13:05:36.453Z,6.14
2019-02-09T13:07:43.699Z,6.05
2019-02-09T13:09:51.374Z,6.13
2019-02-09T13:11:59.095Z,6.20
2019-02-09T13:14:06.197Z,6.26
2019-02-09T13:16:13.833Z,6.23
2019-02-09T13:18:21.254Z,6.22
2019-02-09T13:20:35.001Z,6.24
2019-02-09T13:22:42.495Z,6.34
2019-02-09T13:24:49.435Z,6.28
2019-02-09T13:26:56.785Z,6.24
2019-02-09T13:29:03.682Z,6.27
2019-02-09T13:31:10.756Z,6.18
2019-02-09T13:33:17.855Z,6.17
2019-02-09T13:35:24.674Z,6.29
2019-02-09T13:37:31.834Z,6.32
2019-02-09T13:39:38.794Z,6.43
2019-02-09T13:41:47.396Z,6.52
2019-02-09T13:43:54.514Z,6.56
2019-02-09T13:46:02.194Z,6.59
2019-02-09T13:48:09.996Z,6.81
2019-02-09T13:50:18.274Z,6.64
2019-02-09T13:52:25.600Z,6.70
2019-02-09T13:54:32.515Z,6.76
2019-02-09T13:56:39.393Z,6.79
2019-02-09T13:58:47.214Z,6.76
2019-02-09T14:00:54.684Z,6.72
2019-02-09T14:03:03.159Z,6.62
2019-02-09T14:05:12.462Z,6.65
2019-02-09T14:07:21.127Z,6.53
2019-02-09T14:09:27.952Z,6.51
2019-02-09T14:11:35.032Z,6.52
2019-02-09T14:13:41.902Z,6.45
2019-02-09T14:15:49.857Z,6.36
2019-02-09T14:17:58.752Z,6.35
2019-02-09T14:20:07.942Z,6.25
2019-02-09T14:22:14.841Z,6.25
2019-02-09T14:24:22.213Z,6.28
2019-02-09T14:26:29.943Z,6.31
2019-02-09T14:28:37.272Z,6.26
2019-02-09T14:30:44.542Z,6.22
2019-02-09T14:32:51.939Z,6.18
2019-02-09T14:34:59.290Z,6.12
2019-02-09T14:37:06.812Z,6.08
2019-02-09T14:39:14.242Z,6.06
2019-02-09T14:41:21.332Z,6.04
2019-02-09T14:43:28.320Z,6.01
2019-02-09T14:45:42.143Z,5.96
2019-02-09T14:47:49.362Z,5.91
2019-02-09T14:49:57.562Z,5.89
2019-02-09T14:52:05.202Z,5.87
2019-02-09T14:54:12.393Z,5.83
2019-02-09T14:56:19.632Z,5.83
2019-02-09T14:58:26.610Z,5.82
2019-02-09T15:00:52.018Z,5.85
2019-02-09T15:02:59.657Z,5.87
2019-02-09T15:05:10.639Z,5.86
2019-02-09T15:07:18.098Z,5.86
2019-02-09T15:09:25.089Z,5.86
2019-02-09T15:11:32.228Z,5.82
2019-02-09T15:13:39.189Z,5.81
2019-02-09T15:16:05.681Z,5.81
2019-02-09T15:18:13.749Z,5.82
2019-02-09T15:20:30.593Z,5.82
2019-02-09T15:22:38.257Z,5.79
2019-02-09T15:24:45.376Z,5.76
2019-02-09T15:26:52.679Z,5.73
2019-02-09T15:29:00.022Z,5.71
2019-02-09T15:31:07.271Z,5.64
2019-02-09T15:33:14.230Z,5.54
2019-02-09T15:35:21.490Z,5.46
2019-02-09T15:37:28.918Z,5.39
2019-02-09T15:39:36.242Z,5.27
2019-02-09T15:41:43.800Z,5.16
2019-02-09T15:43:51.610Z,5.11
2019-02-09T15:45:59.139Z,5.03
2019-02-09T15:48:07.071Z,4.98
2019-02-09T15:50:16.921Z,4.99
2019-02-09T15:52:24.440Z,4.94
2019-02-09T15:54:31.866Z,4.88
2019-02-09T15:56:39.219Z,4.82
2019-02-09T15:58:46.576Z,4.74
2019-02-09T16:00:53.487Z,4.71
2019-02-09T16:03:01.988Z,4.67
2019-02-09T16:05:12.896Z,4.62
2019-02-09T16:07:20.313Z,4.61
2019-02-09T16:09:27.568Z,4.60
2019-02-09T16:11:34.519Z,4.57
2019-02-09T16:13:45.745Z,4.59
2019-02-09T16:15:52.657Z,4.56
2019-02-09T16:18:00.690Z,4.50
2019-02-09T16:20:12.240Z,4.42
2019-02-09T16:22:20.258Z,4.33
2019-02-09T16:24:29.116Z,4.24
2019-02-09T16:26:36.538Z,4.14
2019-02-09T16:28:44.968Z,4.05
2019-02-09T16:30:52.486Z,3.97
2019-02-09T16:32:59.667Z,3.87
2019-02-09T16:35:11.585Z,3.77
2019-02-09T16:37:18.677Z,3.72
2019-02-09T16:39:25.814Z,3.70
2019-02-09T16:41:34.324Z,3.67
2019-02-09T16:43:42.681Z,3.64
2019-02-09T16:45:49.823Z,3.58
2019-02-09T16:47:56.908Z,3.53
2019-02-09T16:50:05.132Z,3.54
2019-02-09T16:52:12.406Z,3.52
2019-02-09T16:54:19.576Z,3.56
2019-02-09T16:57:14.186Z,3.61
2019-02-09T16:59:21.832Z,3.72
2019-02-09T17:01:29.039Z,3.74
2019-02-09T17:03:36.539Z,3.71
2019-02-09T17:05:43.838Z,3.72
2019-02-09T17:07:51.112Z,3.69
2019-02-09T17:09:58.539Z,3.71
2019-02-09T17:12:07.248Z,3.79
2019-02-09T17:14:15.388Z,3.89
2019-02-09T17:16:22.579Z,4.04
2019-02-09T17:18:29.647Z,4.13
2019-02-09T17:20:37.226Z,4.18
2019-02-09T17:22:44.238Z,4.25
2019-02-09T17:24:51.319Z,4.29
2019-02-09T17:26:58.959Z,4.32
2019-02-09T17:29:06.521Z,4.35
2019-02-09T17:31:13.639Z,4.34
2019-02-09T17:33:20.835Z,4.40
2019-02-09T17:35:28.260Z,4.51
2019-02-09T17:37:35.440Z,4.58
2019-02-09T17:39:42.999Z,4.61
2019-02-09T17:41:50.341Z,4.69
2019-02-09T17:43:57.887Z,4.73
2019-02-09T17:46:11.639Z,4.73
2019-02-09T17:48:19.241Z,4.73
2019-02-09T17:50:26.498Z,4.73
2019-02-09T17:52:33.978Z,4.73
2019-02-09T17:54:41.639Z,4.74
2019-02-09T17:56:48.600Z,4.78
2019-02-09T17:58:55.879Z,4.81
2019-02-09T18:01:23.499Z,4.89
2019-02-09T18:03:30.445Z,4.93
2019-02-09T18:05:37.978Z,4.93
2019-02-09T18:07:45.158Z,4.86
2019-02-09T18:09:52.288Z,4.83
2019-02-09T18:12:00.179Z,4.77
2019-02-09T18:14:08.160Z,4.68
2019-02-09T18:16:16.840Z,4.76
2019-02-09T18:18:25.258Z,4.75
2019-02-09T18:20:32.379Z,4.60
2019-02-09T18:22:40.348Z,4.47
2019-02-09T18:24:47.499Z,4.37
2019-02-09T18:26:55.039Z,4.29
2019-02-09T18:29:02.965Z,4.19
2019-02-09T18:31:10.067Z,4.14
2019-02-09T18:33:33.019Z,4.10
2019-02-09T18:38:13.278Z,3.98
2019-02-09T18:40:26.786Z,3.90
2019-02-09T18:42:33.839Z,3.96
2019-02-09T18:44:41.034Z,3.90
2019-02-09T18:46:48.327Z,3.85
2019-02-09T18:48:55.479Z,3.82
2019-02-09T18:51:03.520Z,3.98
2019-02-09T18:53:10.693Z,4.07
2019-02-09T18:55:26.478Z,4.19
2019-02-09T18:57:33.543Z,4.28
2019-02-09T18:59:40.720Z,4.28
2019-02-09T19:01:47.806Z,4.26
2019-02-09T19:03:54.959Z,4.27
2019-02-09T19:06:02.179Z,4.32
2019-02-09T19:08:10.998Z,4.47
2019-02-09T19:10:21.859Z,4.53
2019-02-09T19:12:30.224Z,4.59
2019-02-09T19:14:37.439Z,4.62
2019-02-09T19:16:44.580Z,4.64
2019-02-09T19:18:51.618Z,4.65
2019-02-09T19:21:00.839Z,4.70
2019-02-09T19:23:08.260Z,4.79
2019-02-09T19:25:21.778Z,4.81
2019-02-09T19:27:28.960Z,4.89
2019-02-09T19:29:36.060Z,4.90
2019-02-09T19:31:43.099Z,4.88
2019-02-09T19:33:50.740Z,4.89
2019-02-09T19:35:57.786Z,4.90
2019-02-09T19:38:05.619Z,4.92
2019-02-09T19:40:20.459Z,4.96
2019-02-09T19:42:28.160Z,4.97
2019-02-09T19:44:35.459Z,5.00
2019-02-09T19:46:42.460Z,5.02
2019-02-09T19:48:50.099Z,5.00
2019-02-09T19:50:57.447Z,4.99
2019-02-09T19:53:04.439Z,5.00
2019-02-09T19:55:18.558Z,4.99
2019-02-09T19:57:25.920Z,4.97
2019-02-09T19:59:33.026Z,4.90
2019-02-09T20:01:40.235Z,4.85
2019-02-09T20:03:47.280Z,4.79
2019-02-09T20:05:54.700Z,4.67
2019-02-09T20:08:02.241Z,4.64
2019-02-09T20:10:13.625Z,4.56
2019-02-09T20:12:21.166Z,4.58
2019-02-09T20:14:28.919Z,4.45
2019-02-09T20:16:36.538Z,4.39
2019-02-09T20:18:43.899Z,4.35
2019-02-09T20:20:51.438Z,4.27
2019-02-09T20:22:58.733Z,4.22
2019-02-09T20:25:10.201Z,4.22
2019-02-09T20:27:17.750Z,4.14
2019-02-09T20:29:25.438Z,4.06
2019-02-09T20:31:32.382Z,4.03
2019-02-09T20:33:39.559Z,4.06
2019-02-09T20:35:46.600Z,4.02
2019-02-09T20:37:54.266Z,4.08
2019-02-09T20:40:01.168Z,4.04
2019-02-09T20:42:09.377Z,4.01
2019-02-09T20:44:18.676Z,3.91
2019-02-09T20:46:27.110Z,3.89
2019-02-09T20:48:34.606Z,3.83
2019-02-09T20:50:41.646Z,3.83
2019-02-09T20:52:48.933Z,3.79
2019-02-09T20:54:55.939Z,3.77
2019-02-09T20:57:03.011Z,3.74
2019-02-09T20:59:11.558Z,3.68
2019-02-09T21:01:18.600Z,3.60
2019-02-09T21:03:25.711Z,3.63
2019-02-09T21:05:36.468Z,3.60
2019-02-09T21:07:41.717Z,3.66
2019-02-09T21:09:50.061Z,3.71
2019-02-09T21:11:57.450Z,3.68
2019-02-09T21:14:05.819Z,3.66
2019-02-09T21:16:13.067Z,3.64
2019-02-09T21:18:20.085Z,3.75
2019-02-09T21:20:27.384Z,3.73
2019-02-09T21:22:34.730Z,3.70
2019-02-09T21:24:41.920Z,3.66
2019-02-09T21:26:49.111Z,3.67
2019-02-09T21:28:56.251Z,3.68
2019-02-09T21:31:03.668Z,3.60
2019-02-09T21:33:10.719Z,3.53
2019-02-09T21:35:19.105Z,3.54
2019-02-09T21:37:26.113Z,3.55
2019-02-09T21:39:34.083Z,3.56
2019-02-09T21:41:41.416Z,3.65
2019-02-09T21:43:48.713Z,3.81
2019-02-09T21:45:56.405Z,3.86
2019-02-09T21:48:03.580Z,3.93
2019-02-09T21:50:17.475Z,3.98
2019-02-09T21:52:24.659Z,4.14
2019-02-09T21:54:31.667Z,4.21
2019-02-09T21:56:38.780Z,4.22
2019-02-09T21:58:46.504Z,4.29
2019-02-09T22:00:53.866Z,4.36
2019-02-09T22:03:01.319Z,4.39
2019-02-09T22:05:12.102Z,4.46
2019-02-09T22:07:19.521Z,4.52
2019-02-09T22:09:27.236Z,4.53
2019-02-09T22:11:34.623Z,4.62
2019-02-09T22:13:41.951Z,4.68
2019-02-09T22:15:49.260Z,4.69
2019-02-09T22:17:56.231Z,4.72
2019-02-09T22:20:03.321Z,4.72
2019-02-09T22:22:10.530Z,4.74
2019-02-09T22:24:18.530Z,4.72
2019-02-09T22:26:25.599Z,4.74
2019-02-09T22:28:32.671Z,4.72
2019-02-09T22:30:39.628Z,4.76
2019-02-09T22:32:46.613Z,4.74
2019-02-09T22:34:55.329Z,4.72
2019-02-09T22:37:02.619Z,4.72
2019-02-09T22:39:10.359Z,4.75
2019-02-09T22:41:18.284Z,4.73
2019-02-09T22:43:26.243Z,4.69
2019-02-09T22:45:34.983Z,4.68
2019-02-09T22:47:41.643Z,4.64
2019-02-09T22:49:48.503Z,4.60
2019-02-09T22:51:57.016Z,4.54
2019-02-09T22:54:03.825Z,4.59
2019-02-09T22:56:10.552Z,4.57
2019-02-09T22:58:18.628Z,4.56
2019-02-09T23:00:51.764Z,4.58
2019-02-09T23:02:59.677Z,4.66
2019-02-09T23:05:10.677Z,4.63
2019-02-09T23:07:17.387Z,4.58
2019-02-09T23:09:24.016Z,4.51
2019-02-09T23:11:30.636Z,4.45
2019-02-09T23:13:37.682Z,4.41
2019-02-09T23:15:44.211Z,4.37
2019-02-09T23:17:52.314Z,4.33
2019-02-09T23:19:59.280Z,4.33
2019-02-09T23:22:06.300Z,4.34
2019-02-09T23:24:13.288Z,4.33
2019-02-09T23:26:20.005Z,4.31
2019-02-09T23:28:27.689Z,4.31
2019-02-09T23:30:34.646Z,4.32
2019-02-09T23:32:41.476Z,4.36
2019-02-09T23:34:48.300Z,4.39
2019-02-09T23:36:54.802Z,4.37
2019-02-09T23:39:02.610Z,4.39
2019-02-09T23:41:10.780Z,4.41
2019-02-09T23:43:17.671Z,4.42
2019-02-09T23:45:24.238Z,4.48
2019-02-09T23:47:31.563Z,4.55
2019-02-09T23:49:38.629Z,4.59
2019-02-09T23:51:46.623Z,4.58
2019-02-09T23:53:53.553Z,4.58
2019-02-09T23:56:02.051Z,4.59
2019-02-09T23:58:08.783Z,4.57
